createdAt,value
2019-05-07T00:01:55.153Z,12.33
2019-05-07T00:04:26.068Z,13.80
2019-05-07T00:06:55.780Z,12.83
2019-05-07T00:09:25.804Z,12.27
2019-05-07T00:11:55.720Z,11.53
2019-05-07T00:14:25.459Z,12.17
2019-05-07T00:16:55.201Z,13.07
2019-05-07T00:19:25.079Z,12.83
2019-05-07T00:21:54.807Z,12.13
2019-05-07T00:24:24.840Z,12.03
2019-05-07T00:26:54.603Z,11.77
2019-05-07T00:29:32.318Z,12.00
2019-05-07T00:32:02.906Z,10.80
2019-05-07T00:34:38.687Z,11.87
2019-05-07T00:37:28.259Z,12.27
2019-05-07T00:40:22.577Z,11.53
2019-05-07T00:43:14.825Z,12.97
2019-05-07T00:46:04.227Z,12.73
2019-05-07T00:48:34.018Z,13.33
2019-05-07T00:51:22.627Z,13.53
2019-05-07T00:54:12.283Z,12.80
2019-05-07T00:56:42.911Z,12.83
2019-05-07T00:59:13.218Z,12.70
2019-05-07T01:01:43.352Z,12.90
2019-05-07T01:04:13.466Z,12.73
2019-05-07T01:06:43.195Z,13.27
2019-05-07T01:09:13.855Z,13.13
2019-05-07T01:11:43.623Z,12.80
2019-05-07T01:14:13.436Z,12.63
2019-05-07T01:16:43.213Z,11.97
2019-05-07T01:19:13.268Z,11.70
2019-05-07T01:21:43.351Z,12.53
2019-05-07T01:24:13.740Z,11.93
2019-05-07T01:26:43.480Z,11.20
2019-05-07T01:29:35.395Z,11.43
2019-05-07T01:32:30.408Z,11.97
2019-05-07T01:35:04.426Z,11.30
2019-05-07T01:37:34.176Z,10.27
2019-05-07T01:40:05.791Z,11.83
2019-05-07T01:43:02.619Z,10.10
2019-05-07T01:45:45.547Z,10.33
2019-05-07T01:48:04.436Z,10.07
2019-05-07T01:50:34.337Z,9.83
2019-05-07T01:53:04.104Z,8.60
2019-05-07T01:55:34.167Z,9.50
2019-05-07T01:58:04.831Z,9.17
2019-05-07T02:00:34.803Z,9.00
2019-05-07T02:03:12.110Z,9.83
2019-05-07T02:05:52.665Z,8.97
2019-05-07T02:08:42.303Z,8.90
2019-05-07T02:11:14.487Z,8.40
2019-05-07T02:13:44.389Z,8.13
2019-05-07T02:16:14.141Z,9.47
2019-05-07T02:18:43.918Z,10.20
2019-05-07T02:21:14.277Z,10.43
2019-05-07T02:23:44.087Z,10.30
2019-05-07T02:26:13.816Z,10.13
2019-05-07T02:28:43.665Z,9.17
2019-05-07T02:31:15.091Z,9.40
2019-05-07T02:34:04.399Z,9.57
2019-05-07T02:36:34.879Z,11.00
2019-05-07T02:39:15.159Z,9.60
2019-05-07T02:41:44.926Z,8.33
2019-05-07T02:44:15.023Z,9.37
2019-05-07T02:47:12.724Z,8.90
2019-05-07T02:49:47.649Z,9.40
2019-05-07T02:52:24.332Z,8.30
2019-05-07T02:55:15.606Z,10.10
2019-05-07T02:57:45.604Z,8.10
2019-05-07T03:00:19.304Z,7.57
2019-05-07T03:02:48.322Z,9.20
2019-05-07T03:05:18.223Z,8.47
2019-05-07T03:08:07.494Z,8.23
2019-05-07T03:10:37.425Z,9.77
2019-05-07T03:13:07.356Z,8.10
2019-05-07T03:15:37.568Z,7.90
2019-05-07T03:18:07.475Z,8.43
2019-05-07T03:20:46.050Z,9.10
2019-05-07T03:23:46.047Z,6.80
2019-05-07T03:26:19.461Z,8.03
2019-05-07T03:28:54.220Z,7.20
2019-05-07T03:31:36.892Z,8.00
2019-05-07T03:34:26.092Z,7.37
2019-05-07T03:36:57.390Z,7.60
2019-05-07T03:39:27.921Z,7.47
2019-05-07T03:41:57.802Z,7.47
2019-05-07T03:44:53.685Z,7.30
2019-05-07T03:47:34.043Z,8.00
2019-05-07T03:50:04.179Z,6.77
2019-05-07T03:52:34.074Z,7.27
2019-05-07T03:55:04.195Z,8.00
2019-05-07T03:57:53.296Z,7.97
2019-05-07T04:00:24.017Z,7.37
2019-05-07T04:02:53.966Z,7.47
2019-05-07T04:05:23.822Z,6.60
2019-05-07T04:07:54.233Z,7.50
2019-05-07T04:10:24.273Z,7.97
2019-05-07T04:12:54.007Z,8.30
2019-05-07T04:15:24.490Z,9.70
2019-05-07T04:17:54.335Z,11.13
2019-05-07T04:20:24.215Z,9.70
2019-05-07T04:22:54.214Z,7.87
2019-05-07T04:25:39.848Z,8.03
2019-05-07T04:28:15.413Z,7.13
2019-05-07T04:30:45.136Z,6.83
2019-05-07T04:33:38.232Z,7.33
2019-05-07T04:36:15.565Z,7.00
2019-05-07T04:38:45.388Z,6.90
2019-05-07T04:41:15.185Z,6.77
2019-05-07T04:43:45.391Z,7.57
2019-05-07T04:46:15.236Z,8.20
2019-05-07T04:48:45.038Z,8.60
2019-05-07T04:51:17.246Z,9.37
2019-05-07T04:53:47.866Z,10.00
2019-05-07T04:56:17.658Z,11.93
2019-05-07T04:58:47.780Z,12.00
2019-05-07T05:01:19.532Z,10.60
2019-05-07T05:03:49.308Z,10.00
2019-05-07T05:06:19.108Z,10.60
2019-05-07T05:08:53.309Z,12.20
2019-05-07T05:11:23.046Z,11.13
2019-05-07T05:14:13.661Z,10.70
2019-05-07T05:16:43.044Z,11.80
2019-05-07T05:19:14.235Z,10.33
2019-05-07T05:22:01.992Z,11.13
2019-05-07T05:24:35.944Z,11.40
2019-05-07T05:27:05.900Z,12.47
2019-05-07T05:29:52.013Z,12.77
2019-05-07T05:32:22.710Z,12.17
2019-05-07T05:34:52.589Z,12.10
2019-05-07T05:37:22.739Z,12.77
2019-05-07T05:40:05.585Z,12.50
2019-05-07T05:42:33.034Z,12.77
2019-05-07T05:45:03.713Z,12.10
2019-05-07T05:47:33.570Z,14.73
2019-05-07T05:50:04.789Z,14.70
2019-05-07T05:52:59.362Z,14.17
2019-05-07T05:55:32.065Z,16.40
2019-05-07T05:58:12.601Z,15.40
2019-05-07T06:01:02.443Z,17.60
2019-05-07T06:03:51.980Z,17.43
2019-05-07T06:06:32.591Z,16.33
2019-05-07T06:09:24.364Z,20.40
2019-05-07T06:12:32.781Z,16.43
2019-05-07T06:15:08.432Z,16.17
2019-05-07T06:17:56.720Z,16.70
2019-05-07T06:20:37.514Z,15.70
2019-05-07T06:23:34.669Z,14.90
2019-05-07T06:26:05.301Z,15.77
2019-05-07T06:28:35.589Z,14.73
2019-05-07T06:31:05.358Z,13.40
2019-05-07T06:33:35.286Z,13.57
2019-05-07T06:36:05.142Z,14.30
2019-05-07T06:38:42.638Z,12.80
2019-05-07T06:41:43.044Z,13.67
2019-05-07T06:44:17.669Z,12.93
2019-05-07T06:46:47.453Z,12.87
2019-05-07T06:49:17.205Z,11.80
2019-05-07T06:51:47.832Z,11.53
2019-05-07T06:54:17.842Z,11.83
2019-05-07T06:56:49.004Z,11.10
2019-05-07T06:59:38.512Z,10.63
2019-05-07T07:02:25.869Z,11.77
2019-05-07T07:05:15.061Z,6.97
2019-05-07T07:08:07.676Z,8.80
2019-05-07T07:10:55.092Z,7.30
2019-05-07T07:13:25.893Z,4.90
2019-05-07T07:15:55.737Z,4.17
2019-05-07T07:18:26.221Z,3.77
2019-05-07T07:20:56.032Z,3.20
2019-05-07T07:23:26.076Z,3.53
2019-05-07T07:25:56.035Z,2.87
2019-05-07T07:28:26.110Z,3.03
2019-05-07T07:31:17.936Z,3.00
2019-05-07T07:33:48.482Z,3.20
2019-05-07T07:36:22.402Z,2.60
2019-05-07T07:38:52.693Z,2.87
2019-05-07T07:41:41.944Z,3.30
2019-05-07T07:44:32.839Z,3.00
2019-05-07T07:47:02.587Z,2.97
2019-05-07T07:49:33.136Z,3.10
2019-05-07T07:52:03.621Z,2.60
2019-05-07T07:54:33.396Z,2.20
2019-05-07T08:00:11.953Z,2.50
2019-05-07T08:02:52.935Z,2.70
2019-05-07T08:05:23.057Z,3.00
2019-05-07T08:07:53.090Z,2.40
2019-05-07T08:10:23.273Z,3.23
2019-05-07T08:13:12.505Z,2.80
2019-05-07T08:15:42.972Z,3.37
2019-05-07T08:18:13.408Z,2.93
2019-05-07T08:20:43.724Z,2.40
2019-05-07T08:23:13.596Z,3.77
2019-05-07T08:25:52.478Z,3.17
2019-05-07T08:28:23.484Z,3.30
2019-05-07T08:31:03.073Z,3.47
2019-05-07T08:33:36.895Z,3.17
2019-05-07T08:36:17.511Z,3.30
2019-05-07T08:38:52.753Z,3.70
2019-05-07T08:41:23.285Z,4.10
2019-05-07T08:44:08.198Z,4.07
2019-05-07T08:46:45.814Z,4.13
2019-05-07T08:49:16.332Z,3.70
2019-05-07T08:51:49.285Z,3.80
2019-05-07T08:54:19.096Z,3.20
2019-05-07T08:56:49.334Z,3.07
2019-05-07T08:59:19.485Z,3.90
2019-05-07T09:01:49.591Z,3.43
2019-05-07T09:04:21.870Z,2.90
2019-05-07T09:06:51.988Z,2.70
2019-05-07T09:09:22.374Z,2.30
2019-05-07T09:11:52.216Z,3.10
2019-05-07T09:14:24.479Z,3.07
2019-05-07T09:16:53.792Z,3.50
2019-05-07T09:19:23.600Z,3.57
2019-05-07T09:21:53.481Z,2.40
2019-05-07T09:24:23.884Z,2.00
2019-05-07T09:27:22.365Z,3.00
2019-05-07T09:29:59.028Z,2.53
2019-05-07T09:32:46.767Z,3.17
2019-05-07T09:35:22.233Z,2.47
2019-05-07T09:37:52.712Z,2.83
2019-05-07T09:40:22.845Z,2.93
2019-05-07T09:43:12.413Z,3.03
2019-05-07T09:45:42.324Z,2.90
2019-05-07T09:48:12.257Z,2.80
2019-05-07T09:50:43.007Z,3.10
2019-05-07T09:53:12.986Z,3.50
2019-05-07T09:55:43.262Z,3.17
2019-05-07T09:58:13.236Z,3.50
2019-05-07T10:00:43.130Z,3.63
2019-05-07T10:03:13.288Z,3.37
2019-05-07T10:05:43.621Z,3.83
2019-05-07T10:08:32.823Z,3.13
2019-05-07T10:11:05.102Z,2.90
2019-05-07T10:13:45.602Z,2.90
2019-05-07T10:16:19.985Z,3.03
2019-05-07T10:18:51.925Z,3.63
2019-05-07T10:21:22.078Z,3.90
2019-05-07T10:23:52.839Z,3.80
2019-05-07T10:26:22.758Z,3.50
2019-05-07T10:28:52.945Z,4.10
2019-05-07T10:31:23.586Z,3.83
2019-05-07T10:33:53.512Z,3.47
2019-05-07T10:36:23.539Z,3.83
2019-05-07T10:38:53.928Z,4.20
2019-05-07T10:41:24.049Z,4.30
2019-05-07T10:43:54.255Z,3.97
2019-05-07T10:46:34.157Z,4.23
2019-05-07T10:49:12.354Z,3.87
2019-05-07T10:51:43.150Z,4.20
2019-05-07T10:54:13.486Z,4.00
2019-05-07T10:56:43.272Z,4.20
2019-05-07T10:59:32.353Z,4.47
2019-05-07T11:02:26.856Z,4.60
2019-05-07T11:04:56.939Z,5.60
2019-05-07T11:07:27.139Z,4.73
2019-05-07T11:09:56.931Z,4.97
2019-05-07T11:12:26.897Z,4.30
2019-05-07T11:14:56.886Z,4.40
2019-05-07T11:18:13.442Z,4.17
2019-05-07T11:20:49.878Z,4.67
2019-05-07T11:23:14.842Z,4.40
2019-05-07T11:25:45.137Z,3.87
2019-05-07T11:28:14.972Z,3.93
2019-05-07T11:30:45.577Z,4.73
2019-05-07T11:33:35.612Z,4.03
2019-05-07T11:36:05.582Z,3.90
2019-05-07T11:38:35.409Z,5.10
2019-05-07T11:41:05.989Z,4.77
2019-05-07T11:43:54.694Z,4.30
2019-05-07T11:46:32.881Z,3.90
2019-05-07T11:49:25.005Z,3.90
2019-05-07T11:52:12.307Z,4.10
2019-05-07T11:54:43.769Z,3.80
2019-05-07T11:57:13.593Z,4.30
2019-05-07T11:59:43.978Z,4.70
2019-05-07T12:02:14.187Z,4.43
2019-05-07T12:04:43.989Z,4.50
2019-05-07T12:07:34.186Z,3.77
2019-05-07T12:09:45.543Z,3.50
2019-05-07T12:12:15.691Z,4.00
2019-05-07T12:14:45.666Z,4.37
2019-05-07T12:17:15.485Z,4.40
2019-05-07T12:19:45.706Z,4.43
2019-05-07T12:22:17.260Z,4.43
2019-05-07T12:24:47.112Z,4.43
2019-05-07T12:27:17.597Z,3.97
2019-05-07T12:29:47.447Z,4.57
2019-05-07T12:32:33.573Z,4.30
2019-05-07T12:35:12.623Z,4.07
2019-05-07T12:37:42.780Z,4.23
2019-05-07T12:40:14.173Z,4.53
2019-05-07T12:43:03.052Z,3.07
2019-05-07T12:45:34.419Z,3.80
2019-05-07T12:48:04.420Z,4.03
2019-05-07T12:50:34.662Z,4.03
2019-05-07T12:53:12.335Z,4.80
2019-05-07T12:55:55.040Z,4.47
2019-05-07T12:58:26.927Z,4.90
2019-05-07T13:01:05.060Z,4.47
2019-05-07T13:04:06.934Z,4.13
2019-05-07T13:06:42.567Z,3.73
2019-05-07T13:09:14.496Z,4.07
2019-05-07T13:11:44.370Z,4.50
2019-05-07T13:14:14.226Z,4.40
2019-05-07T13:16:45.644Z,4.13
2019-05-07T13:19:34.509Z,3.73
2019-05-07T13:22:04.729Z,4.37
2019-05-07T13:24:36.654Z,4.60
2019-05-07T13:27:07.045Z,4.40
2019-05-07T13:29:44.579Z,4.00
2019-05-07T13:32:14.387Z,4.67
2019-05-07T13:34:46.608Z,3.67
2019-05-07T13:37:21.901Z,3.90
2019-05-07T13:40:11.663Z,3.97
2019-05-07T13:42:52.294Z,4.23
2019-05-07T13:45:31.833Z,4.10
2019-05-07T13:48:12.146Z,3.90
2019-05-07T13:50:42.206Z,4.30
2019-05-07T13:53:12.423Z,4.63
2019-05-07T13:55:42.929Z,4.30
2019-05-07T13:58:14.339Z,4.70
2019-05-07T14:01:02.050Z,4.37
2019-05-07T14:03:44.764Z,4.33
2019-05-07T14:06:17.316Z,4.10
2019-05-07T14:09:08.576Z,4.67
2019-05-07T14:11:38.837Z,4.00
2019-05-07T14:14:08.791Z,4.10
2019-05-07T14:16:38.892Z,4.77
2019-05-07T14:19:09.652Z,3.57
2019-05-07T14:21:41.953Z,3.67
2019-05-07T14:24:12.412Z,3.40
2019-05-07T14:26:42.964Z,3.93
2019-05-07T14:29:18.879Z,3.70
2019-05-07T14:31:54.546Z,3.93
2019-05-07T14:35:02.109Z,4.20
2019-05-07T14:37:36.307Z,4.27
2019-05-07T14:40:06.337Z,4.30
2019-05-07T14:42:41.988Z,4.40
2019-05-07T14:45:12.020Z,4.53
2019-05-07T14:47:44.440Z,4.00
2019-05-07T14:50:13.698Z,4.53
2019-05-07T14:52:43.538Z,4.80
2019-05-07T14:55:13.623Z,4.10
2019-05-07T14:57:43.875Z,4.23
2019-05-07T15:00:13.897Z,4.83
2019-05-07T15:02:43.640Z,4.53
2019-05-07T15:05:14.151Z,4.53
2019-05-07T15:07:44.048Z,4.53
2019-05-07T15:10:14.038Z,4.30
2019-05-07T15:12:44.576Z,4.97
2019-05-07T15:15:14.625Z,4.33
2019-05-07T15:17:52.366Z,5.27
2019-05-07T15:20:22.525Z,5.53
2019-05-07T15:23:02.721Z,5.33
2019-05-07T15:25:32.767Z,5.20
2019-05-07T15:28:41.636Z,5.43
2019-05-07T15:31:14.415Z,5.60
2019-05-07T15:33:44.311Z,7.20
2019-05-07T15:36:14.479Z,6.83
2019-05-07T15:38:44.569Z,6.97
2019-05-07T15:41:16.266Z,8.27
2019-05-07T15:43:46.448Z,7.50
2019-05-07T15:46:16.292Z,7.60
2019-05-07T15:48:46.399Z,7.53
2019-05-07T15:51:17.134Z,7.47
2019-05-07T15:53:57.319Z,7.57
2019-05-07T15:56:27.138Z,8.30
2019-05-07T15:58:56.952Z,8.67
2019-05-07T16:01:27.316Z,8.40
2019-05-07T16:04:22.403Z,8.50
2019-05-07T16:06:47.549Z,9.37
2019-05-07T16:09:17.667Z,9.80
2019-05-07T16:11:47.544Z,9.80
2019-05-07T16:14:26.735Z,10.40
2019-05-07T16:17:06.905Z,9.47
2019-05-07T16:19:36.893Z,10.57
2019-05-07T16:22:12.744Z,10.83
2019-05-07T16:24:42.837Z,9.97
2019-05-07T16:27:12.598Z,11.10
2019-05-07T16:29:42.446Z,10.20
2019-05-07T16:32:12.571Z,11.33
2019-05-07T16:34:42.933Z,10.93
2019-05-07T16:37:12.963Z,10.90
2019-05-07T16:39:43.234Z,11.90
2019-05-07T16:42:13.103Z,11.70
2019-05-07T16:45:02.878Z,11.60
2019-05-07T16:47:32.872Z,12.50
2019-05-07T16:50:04.189Z,11.30
2019-05-07T16:52:35.247Z,11.37
2019-05-07T16:55:05.680Z,12.63
2019-05-07T16:57:55.006Z,11.70
2019-05-07T17:00:34.564Z,11.63
2019-05-07T17:03:28.277Z,12.80
2019-05-07T17:05:58.117Z,12.23
2019-05-07T17:08:42.684Z,12.40
2019-05-07T17:11:12.847Z,12.30
2019-05-07T17:13:43.024Z,11.33
2019-05-07T17:16:13.021Z,11.60
2019-05-07T17:18:42.843Z,12.40
2019-05-07T17:21:12.693Z,11.80
2019-05-07T17:23:44.651Z,11.90
2019-05-07T17:26:14.544Z,10.93
2019-05-07T17:28:44.946Z,11.90
2019-05-07T17:31:15.001Z,12.50
2019-05-07T17:33:44.832Z,12.93
2019-05-07T17:36:14.609Z,12.00
2019-05-07T17:38:44.844Z,12.40
2019-05-07T17:41:22.208Z,12.17
2019-05-07T17:43:46.289Z,12.40
2019-05-07T17:46:21.702Z,11.30
2019-05-07T17:48:52.444Z,12.30
2019-05-07T17:51:42.174Z,12.30
2019-05-07T17:54:31.846Z,11.67
2019-05-07T17:57:02.157Z,12.50
2019-05-07T17:59:32.457Z,12.53
2019-05-07T18:02:29.517Z,11.40
2019-05-07T18:04:58.899Z,11.67
2019-05-07T18:07:28.688Z,12.10
2019-05-07T18:09:58.652Z,12.20
2019-05-07T18:12:28.631Z,11.57
2019-05-07T18:14:58.709Z,12.80
2019-05-07T18:17:42.057Z,11.50
2019-05-07T18:20:12.876Z,11.43
2019-05-07T18:22:43.030Z,12.27
2019-05-07T18:25:13.285Z,12.80
2019-05-07T18:27:43.140Z,11.90
2019-05-07T18:30:18.227Z,12.70
2019-05-07T18:32:54.974Z,13.00
2019-05-07T18:35:25.054Z,12.50
2019-05-07T18:37:55.313Z,12.13
2019-05-07T18:40:27.828Z,12.87
2019-05-07T18:42:57.872Z,12.63
2019-05-07T18:45:27.780Z,13.00
2019-05-07T18:47:57.665Z,12.80
2019-05-07T18:50:27.573Z,12.60
2019-05-07T18:52:57.808Z,12.40
2019-05-07T18:55:27.617Z,13.23
2019-05-07T18:58:16.667Z,12.70
2019-05-07T19:00:51.923Z,12.30
2019-05-07T19:03:21.943Z,12.80
2019-05-07T19:05:54.792Z,14.83
2019-05-07T19:08:25.893Z,12.83
2019-05-07T19:10:56.863Z,11.77
2019-05-07T19:13:26.744Z,11.80
2019-05-07T19:15:56.833Z,11.07
2019-05-07T19:18:26.668Z,11.97
2019-05-07T19:20:57.900Z,12.27
2019-05-07T19:23:33.028Z,11.80
2019-05-07T19:26:02.960Z,11.57
2019-05-07T19:28:33.064Z,12.53
2019-05-07T19:31:03.000Z,11.90
2019-05-07T19:33:32.787Z,11.40
2019-05-07T19:36:02.572Z,11.37
2019-05-07T19:38:33.137Z,12.07
2019-05-07T19:41:02.961Z,11.80
2019-05-07T19:43:36.098Z,11.57
2019-05-07T19:46:04.758Z,12.40
2019-05-07T19:48:36.164Z,12.57
2019-05-07T19:51:05.989Z,12.37
2019-05-07T19:53:35.918Z,13.80
2019-05-07T19:56:32.389Z,12.87
2019-05-07T19:59:02.581Z,13.53
2019-05-07T20:01:45.633Z,12.67
2019-05-07T20:04:15.620Z,14.07
2019-05-07T20:06:45.446Z,11.87
2019-05-07T20:09:36.343Z,13.97
2019-05-07T20:12:08.007Z,13.27
2019-05-07T20:14:38.027Z,12.07
2019-05-07T20:17:08.051Z,13.60
2019-05-07T20:19:37.880Z,13.93
2019-05-07T20:22:08.008Z,13.97
2019-05-07T20:24:37.886Z,13.90
2019-05-07T20:27:07.759Z,13.63
2019-05-07T20:29:42.664Z,14.20
2019-05-07T20:32:12.520Z,13.43
2019-05-07T20:34:42.378Z,15.07
2019-05-07T20:37:12.948Z,13.43
2019-05-07T20:39:43.276Z,13.90
2019-05-07T20:42:13.080Z,15.20
2019-05-07T20:44:42.950Z,13.77
2019-05-07T20:47:12.874Z,13.43
2019-05-07T20:49:43.108Z,14.57
2019-05-07T20:52:12.977Z,15.10
2019-05-07T20:54:48.637Z,14.10
2019-05-07T20:57:35.966Z,14.70
2019-05-07T21:00:09.331Z,14.83
2019-05-07T21:03:19.992Z,16.03
2019-05-07T21:05:52.929Z,15.50
2019-05-07T21:08:23.286Z,16.87
2019-05-07T21:10:53.959Z,16.50
2019-05-07T21:13:31.082Z,17.37
2019-05-07T21:15:55.377Z,17.10
2019-05-07T21:18:25.509Z,16.57
2019-05-07T21:20:56.580Z,16.87
2019-05-07T21:23:26.546Z,16.50
2019-05-07T21:25:56.406Z,16.57
2019-05-07T21:28:26.497Z,16.80
2019-05-07T21:30:56.365Z,17.23
2019-05-07T21:33:26.171Z,16.90
2019-05-07T21:35:57.028Z,16.90
2019-05-07T21:38:27.035Z,17.30
2019-05-07T21:40:56.997Z,16.57
2019-05-07T21:43:27.192Z,17.63
2019-05-07T21:45:57.145Z,17.03
2019-05-07T21:48:26.937Z,17.13
2019-05-07T21:50:59.125Z,16.77
2019-05-07T21:53:34.296Z,16.37
2019-05-07T21:56:18.499Z,16.00
2019-05-07T21:58:54.056Z,18.23
2019-05-07T22:01:32.724Z,18.90
2019-05-07T22:04:03.101Z,22.60
2019-05-07T22:06:32.880Z,25.83
2019-05-07T22:09:02.772Z,28.87
2019-05-07T22:11:32.783Z,30.30
2019-05-07T22:14:02.945Z,30.53
2019-05-07T22:16:34.286Z,29.10
2019-05-07T22:19:04.405Z,25.27
2019-05-07T22:21:34.375Z,22.87
2019-05-07T22:24:04.777Z,19.97
2019-05-07T22:26:34.740Z,19.03
2019-05-07T22:29:04.567Z,18.47
2019-05-07T22:32:02.780Z,19.10
2019-05-07T22:34:52.031Z,18.93
2019-05-07T22:37:22.160Z,17.90
2019-05-07T22:39:52.481Z,19.27
2019-05-07T22:42:29.653Z,17.60
2019-05-07T22:44:59.400Z,18.93
2019-05-07T22:47:29.536Z,18.80
2019-05-07T22:49:59.528Z,19.57
2019-05-07T22:52:29.608Z,18.80
2019-05-07T22:54:59.408Z,17.80
2019-05-07T22:57:35.855Z,19.10
2019-05-07T23:00:07.289Z,18.70
2019-05-07T23:02:56.474Z,19.17
2019-05-07T23:05:26.225Z,18.80
2019-05-07T23:07:56.006Z,19.70
2019-05-07T23:10:26.251Z,18.60
2019-05-07T23:12:56.092Z,19.10
2019-05-07T23:15:25.993Z,18.00
2019-05-07T23:18:14.872Z,17.80
2019-05-07T23:20:44.627Z,19.70
2019-05-07T23:23:14.771Z,20.33
2019-05-07T23:25:44.657Z,19.90
2019-05-07T23:28:14.464Z,19.67
2019-05-07T23:30:44.415Z,19.80
2019-05-07T23:33:14.431Z,19.40
2019-05-07T23:35:44.222Z,19.30
2019-05-07T23:38:33.253Z,20.40
2019-05-07T23:41:16.366Z,18.40
2019-05-07T23:44:05.604Z,19.57
2019-05-07T23:46:35.383Z,17.30
2019-05-07T23:49:05.208Z,19.17
2019-05-07T23:52:49.416Z,18.60
2019-05-07T23:55:55.568Z,17.93
2019-05-07T23:58:25.432Z,18.37
